sensor_id;sensor_type;location;lat;lon;timestamp;P1;durP1;ratioP1;P2;durP2;ratioP2
4636;SDS011;2331;48.806;9.140;2023-07-08T00:00:39;11.13;;;6.73;;
4636;SDS011;2331;48.806;9.140;2023-07-08T00:03:07;12.50;;;6.87;;
4636;SDS011;2331;48.806;9.140;2023-07-08T00:05:33;10.57;;;6.77;;
4636;SDS011;2331;48.806;9.140;2023-07-08T00:08:01;12.60;;;6.40;;
4636;SDS011;2331;48.806;9.140;2023-07-08T00:10:30;12.30;;;6.00;;
4636;SDS011;2331;48.806;9.140;2023-07-08T00:13:17;11.77;;;7.03;;
4636;SDS011;2331;48.806;9.140;2023-07-08T00:16:00;10.90;;;5.60;;
4636;SDS011;2331;48.806;9.140;2023-07-08T00:18:42;11.17;;;6.23;;
4636;SDS011;2331;48.806;9.140;2023-07-08T00:21:43;12.80;;;6.90;;
4636;SDS011;2331;48.806;9.140;2023-07-08T00:24:27;11.67;;;7.50;;
4636;SDS011;2331;48.806;9.140;2023-07-08T00:27:13;11.97;;;6.00;;
4636;SDS011;2331;48.806;9.140;2023-07-08T00:30:28;12.03;;;6.33;;
4636;SDS011;2331;48.806;9.140;2023-07-08T00:32:57;9.47;;;5.73;;
4636;SDS011;2331;48.806;9.140;2023-07-08T00:35:37;11.10;;;6.73;;
4636;SDS011;2331;48.806;9.140;2023-07-08T00:38:15;13.00;;;7.40;;
4636;SDS011;2331;48.806;9.140;2023-07-08T00:40:58;12.50;;;6.90;;
4636;SDS011;2331;48.806;9.140;2023-07-08T00:43:52;14.90;;;6.40;;
4636;SDS011;2331;48.806;9.140;2023-07-08T00:46:46;10.63;;;6.60;;
4636;SDS011;2331;48.806;9.140;2023-07-08T00:49:29;9.67;;;6.00;;
4636;SDS011;2331;48.806;9.140;2023-07-08T00:52:21;11.57;;;6.87;;
4636;SDS011;2331;48.806;9.140;2023-07-08T00:55:14;10.03;;;6.23;;
4636;SDS011;2331;48.806;9.140;2023-07-08T00:57:42;10.87;;;6.57;;
4636;SDS011;2331;48.806;9.140;2023-07-08T01:00:15;10.57;;;6.03;;
4636;SDS011;2331;48.806;9.140;2023-07-08T01:03:02;11.37;;;6.30;;
4636;SDS011;2331;48.806;9.140;2023-07-08T01:05:55;10.63;;;6.57;;
4636;SDS011;2331;48.806;9.140;2023-07-08T01:08:36;12.17;;;7.03;;
4636;SDS011;2331;48.806;9.140;2023-07-08T01:11:21;12.07;;;6.80;;
4636;SDS011;2331;48.806;9.140;2023-07-08T01:14:02;11.13;;;6.47;;
4636;SDS011;2331;48.806;9.140;2023-07-08T01:16:35;10.37;;;6.30;;
4636;SDS011;2331;48.806;9.140;2023-07-08T01:19:04;10.00;;;6.30;;
4636;SDS011;2331;48.806;9.140;2023-07-08T01:21:35;10.00;;;6.40;;
4636;SDS011;2331;48.806;9.140;2023-07-08T01:24:07;12.63;;;6.30;;
4636;SDS011;2331;48.806;9.140;2023-07-08T01:26:37;10.33;;;5.87;;
4636;SDS011;2331;48.806;9.140;2023-07-08T01:29:09;12.10;;;6.63;;
4636;SDS011;2331;48.806;9.140;2023-07-08T01:31:37;9.50;;;5.60;;
4636;SDS011;2331;48.806;9.140;2023-07-08T01:34:04;12.80;;;6.53;;
4636;SDS011;2331;48.806;9.140;2023-07-08T01:36:31;10.80;;;6.00;;
4636;SDS011;2331;48.806;9.140;2023-07-08T01:39:03;12.50;;;6.50;;
4636;SDS011;2331;48.806;9.140;2023-07-08T01:41:31;10.23;;;6.20;;
4636;SDS011;2331;48.806;9.140;2023-07-08T01:43:57;13.23;;;6.63;;
4636;SDS011;2331;48.806;9.140;2023-07-08T01:46:24;11.40;;;6.47;;
4636;SDS011;2331;48.806;9.140;2023-07-08T01:48:55;11.13;;;6.37;;
4636;SDS011;2331;48.806;9.140;2023-07-08T01:51:23;18.33;;;6.53;;
4636;SDS011;2331;48.806;9.140;2023-07-08T01:53:51;11.40;;;5.87;;
4636;SDS011;2331;48.806;9.140;2023-07-08T01:56:18;9.83;;;5.90;;
4636;SDS011;2331;48.806;9.140;2023-07-08T01:58:46;11.10;;;6.87;;
4636;SDS011;2331;48.806;9.140;2023-07-08T02:01:13;11.30;;;6.40;;
4636;SDS011;2331;48.806;9.140;2023-07-08T02:03:40;9.80;;;6.07;;
4636;SDS011;2331;48.806;9.140;2023-07-08T02:06:11;11.10;;;6.07;;
4636;SDS011;2331;48.806;9.140;2023-07-08T02:08:38;12.33;;;6.37;;
4636;SDS011;2331;48.806;9.140;2023-07-08T02:11:06;10.73;;;6.10;;
4636;SDS011;2331;48.806;9.140;2023-07-08T02:13:33;13.10;;;5.93;;
4636;SDS011;2331;48.806;9.140;2023-07-08T02:16:01;11.23;;;6.60;;
4636;SDS011;2331;48.806;9.140;2023-07-08T02:18:27;10.43;;;6.27;;
4636;SDS011;2331;48.806;9.140;2023-07-08T02:20:57;10.00;;;6.20;;
4636;SDS011;2331;48.806;9.140;2023-07-08T02:23:26;10.93;;;6.77;;
4636;SDS011;2331;48.806;9.140;2023-07-08T02:25:53;10.83;;;6.30;;
4636;SDS011;2331;48.806;9.140;2023-07-08T02:28:21;10.90;;;6.57;;
4636;SDS011;2331;48.806;9.140;2023-07-08T02:30:48;13.73;;;6.13;;
4636;SDS011;2331;48.806;9.140;2023-07-08T02:33:16;10.03;;;5.83;;
4636;SDS011;2331;48.806;9.140;2023-07-08T02:35:43;10.63;;;6.50;;
4636;SDS011;2331;48.806;9.140;2023-07-08T02:38:10;11.20;;;6.50;;
4636;SDS011;2331;48.806;9.140;2023-07-08T02:40:37;11.63;;;6.17;;
4636;SDS011;2331;48.806;9.140;2023-07-08T02:43:03;11.50;;;6.00;;
4636;SDS011;2331;48.806;9.140;2023-07-08T02:45:30;10.80;;;6.27;;
4636;SDS011;2331;48.806;9.140;2023-07-08T02:47:57;10.33;;;6.60;;
4636;SDS011;2331;48.806;9.140;2023-07-08T02:50:25;10.93;;;6.30;;
4636;SDS011;2331;48.806;9.140;2023-07-08T02:52:51;10.10;;;5.97;;
4636;SDS011;2331;48.806;9.140;2023-07-08T02:55:18;11.27;;;5.87;;
4636;SDS011;2331;48.806;9.140;2023-07-08T02:57:45;12.10;;;6.03;;
4636;SDS011;2331;48.806;9.140;2023-07-08T03:00:12;10.30;;;5.90;;
4636;SDS011;2331;48.806;9.140;2023-07-08T03:02:39;12.03;;;6.57;;
4636;SDS011;2331;48.806;9.140;2023-07-08T03:05:06;10.33;;;5.90;;
4636;SDS011;2331;48.806;9.140;2023-07-08T03:07:35;11.10;;;6.40;;
4636;SDS011;2331;48.806;9.140;2023-07-08T03:10:02;11.43;;;6.03;;
4636;SDS011;2331;48.806;9.140;2023-07-08T03:12:29;14.37;;;6.70;;
4636;SDS011;2331;48.806;9.140;2023-07-08T03:14:55;9.43;;;5.70;;
4636;SDS011;2331;48.806;9.140;2023-07-08T03:17:22;10.67;;;6.00;;
4636;SDS011;2331;48.806;9.140;2023-07-08T03:19:49;11.53;;;6.60;;
4636;SDS011;2331;48.806;9.140;2023-07-08T03:22:16;9.30;;;5.77;;
4636;SDS011;2331;48.806;9.140;2023-07-08T03:24:44;10.50;;;6.53;;
4636;SDS011;2331;48.806;9.140;2023-07-08T03:27:11;11.90;;;6.13;;
4636;SDS011;2331;48.806;9.140;2023-07-08T03:29:39;10.70;;;6.20;;
4636;SDS011;2331;48.806;9.140;2023-07-08T03:32:07;13.13;;;6.30;;
4636;SDS011;2331;48.806;9.140;2023-07-08T03:34:35;14.83;;;6.93;;
4636;SDS011;2331;48.806;9.140;2023-07-08T03:37:02;13.30;;;7.10;;
4636;SDS011;2331;48.806;9.140;2023-07-08T03:39:29;10.63;;;6.60;;
4636;SDS011;2331;48.806;9.140;2023-07-08T03:41:59;12.57;;;6.90;;
4636;SDS011;2331;48.806;9.140;2023-07-08T03:44:26;11.87;;;6.73;;
4636;SDS011;2331;48.806;9.140;2023-07-08T03:46:53;17.33;;;7.30;;
4636;SDS011;2331;48.806;9.140;2023-07-08T03:49:20;11.83;;;6.30;;
4636;SDS011;2331;48.806;9.140;2023-07-08T03:51:49;12.03;;;6.47;;
4636;SDS011;2331;48.806;9.140;2023-07-08T03:54:17;13.20;;;6.80;;
4636;SDS011;2331;48.806;9.140;2023-07-08T03:56:45;13.00;;;6.67;;
4636;SDS011;2331;48.806;9.140;2023-07-08T03:59:13;11.10;;;6.27;;
4636;SDS011;2331;48.806;9.140;2023-07-08T04:01:39;11.33;;;6.43;;
4636;SDS011;2331;48.806;9.140;2023-07-08T04:04:08;9.77;;;5.77;;
4636;SDS011;2331;48.806;9.140;2023-07-08T04:06:37;9.93;;;5.90;;
4636;SDS011;2331;48.806;9.140;2023-07-08T04:09:04;10.20;;;6.63;;
4636;SDS011;2331;48.806;9.140;2023-07-08T04:11:31;11.47;;;7.40;;
4636;SDS011;2331;48.806;9.140;2023-07-08T04:13:58;9.80;;;6.37;;
4636;SDS011;2331;48.806;9.140;2023-07-08T04:16:27;12.30;;;7.17;;
4636;SDS011;2331;48.806;9.140;2023-07-08T04:18:55;12.30;;;6.70;;
4636;SDS011;2331;48.806;9.140;2023-07-08T04:21:23;15.13;;;7.83;;
4636;SDS011;2331;48.806;9.140;2023-07-08T04:23:51;16.63;;;7.60;;
4636;SDS011;2331;48.806;9.140;2023-07-08T04:26:18;12.33;;;7.30;;
4636;SDS011;2331;48.806;9.140;2023-07-08T04:28:45;11.67;;;7.13;;
4636;SDS011;2331;48.806;9.140;2023-07-08T04:31:11;13.17;;;7.50;;
4636;SDS011;2331;48.806;9.140;2023-07-08T04:33:39;11.67;;;6.90;;
4636;SDS011;2331;48.806;9.140;2023-07-08T04:36:08;12.50;;;7.00;;
4636;SDS011;2331;48.806;9.140;2023-07-08T04:38:38;11.77;;;6.70;;
4636;SDS011;2331;48.806;9.140;2023-07-08T04:41:06;12.83;;;6.83;;
4636;SDS011;2331;48.806;9.140;2023-07-08T04:43:32;11.20;;;6.60;;
4636;SDS011;2331;48.806;9.140;2023-07-08T04:45:59;15.43;;;7.20;;
4636;SDS011;2331;48.806;9.140;2023-07-08T04:48:26;12.17;;;6.63;;
4636;SDS011;2331;48.806;9.140;2023-07-08T04:50:55;10.77;;;6.70;;
4636;SDS011;2331;48.806;9.140;2023-07-08T04:53:22;13.20;;;6.50;;
4636;SDS011;2331;48.806;9.140;2023-07-08T04:55:50;11.33;;;6.40;;
4636;SDS011;2331;48.806;9.140;2023-07-08T04:58:19;12.97;;;7.00;;
4636;SDS011;2331;48.806;9.140;2023-07-08T05:00:46;12.33;;;7.70;;
4636;SDS011;2331;48.806;9.140;2023-07-08T05:03:14;11.37;;;6.57;;
4636;SDS011;2331;48.806;9.140;2023-07-08T05:05:41;12.53;;;7.10;;
4636;SDS011;2331;48.806;9.140;2023-07-08T05:08:09;11.97;;;7.23;;
4636;SDS011;2331;48.806;9.140;2023-07-08T05:10:39;11.70;;;7.13;;
4636;SDS011;2331;48.806;9.140;2023-07-08T05:13:07;12.13;;;7.17;;
4636;SDS011;2331;48.806;9.140;2023-07-08T05:15:33;12.90;;;6.93;;
4636;SDS011;2331;48.806;9.140;2023-07-08T05:18:01;10.87;;;6.70;;
4636;SDS011;2331;48.806;9.140;2023-07-08T05:20:28;13.00;;;6.30;;
4636;SDS011;2331;48.806;9.140;2023-07-08T05:22:57;11.30;;;6.77;;
4636;SDS011;2331;48.806;9.140;2023-07-08T05:25:25;13.20;;;7.53;;
4636;SDS011;2331;48.806;9.140;2023-07-08T05:27:52;10.93;;;6.60;;
4636;SDS011;2331;48.806;9.140;2023-07-08T05:30:19;13.13;;;6.80;;
4636;SDS011;2331;48.806;9.140;2023-07-08T05:32:48;11.17;;;6.80;;
4636;SDS011;2331;48.806;9.140;2023-07-08T05:35:14;12.13;;;7.03;;
4636;SDS011;2331;48.806;9.140;2023-07-08T05:37:41;12.97;;;7.47;;
4636;SDS011;2331;48.806;9.140;2023-07-08T05:40:12;15.60;;;7.63;;
4636;SDS011;2331;48.806;9.140;2023-07-08T05:42:40;13.13;;;7.40;;
4636;SDS011;2331;48.806;9.140;2023-07-08T05:45:06;11.60;;;7.07;;
4636;SDS011;2331;48.806;9.140;2023-07-08T05:47:35;12.23;;;6.97;;
4636;SDS011;2331;48.806;9.140;2023-07-08T05:50:02;10.23;;;6.23;;
4636;SDS011;2331;48.806;9.140;2023-07-08T05:52:29;12.80;;;7.33;;
4636;SDS011;2331;48.806;9.140;2023-07-08T05:54:55;14.47;;;7.97;;
4636;SDS011;2331;48.806;9.140;2023-07-08T05:57:23;11.70;;;7.17;;
4636;SDS011;2331;48.806;9.140;2023-07-08T05:59:52;12.10;;;7.17;;
4636;SDS011;2331;48.806;9.140;2023-07-08T06:02:18;12.90;;;7.60;;
4636;SDS011;2331;48.806;9.140;2023-07-08T06:04:48;11.63;;;6.53;;
4636;SDS011;2331;48.806;9.140;2023-07-08T06:07:14;12.03;;;7.23;;
4636;SDS011;2331;48.806;9.140;2023-07-08T06:09:43;12.50;;;7.00;;
4636;SDS011;2331;48.806;9.140;2023-07-08T06:12:10;11.17;;;7.10;;
4636;SDS011;2331;48.806;9.140;2023-07-08T06:14:37;11.43;;;6.73;;
4636;SDS011;2331;48.806;9.140;2023-07-08T06:17:05;11.60;;;6.40;;
4636;SDS011;2331;48.806;9.140;2023-07-08T06:19:32;12.90;;;6.87;;
4636;SDS011;2331;48.806;9.140;2023-07-08T06:21:59;14.33;;;7.40;;
4636;SDS011;2331;48.806;9.140;2023-07-08T06:24:29;13.40;;;7.30;;
4636;SDS011;2331;48.806;9.140;2023-07-08T06:26:56;12.23;;;6.53;;
4636;SDS011;2331;48.806;9.140;2023-07-08T06:29:28;10.07;;;6.33;;
4636;SDS011;2331;48.806;9.140;2023-07-08T06:32:31;12.67;;;6.30;;
4636;SDS011;2331;48.806;9.140;2023-07-08T06:35:06;12.07;;;6.60;;
4636;SDS011;2331;48.806;9.140;2023-07-08T06:37:38;13.10;;;6.57;;
4636;SDS011;2331;48.806;9.140;2023-07-08T06:40:38;13.90;;;5.77;;
4636;SDS011;2331;48.806;9.140;2023-07-08T06:43:21;9.10;;;4.70;;
4636;SDS011;2331;48.806;9.140;2023-07-08T06:46:05;9.10;;;4.70;;
4636;SDS011;2331;48.806;9.140;2023-07-08T06:48:33;11.40;;;5.00;;
4636;SDS011;2331;48.806;9.140;2023-07-08T06:50:59;15.87;;;4.93;;
4636;SDS011;2331;48.806;9.140;2023-07-08T06:53:26;7.10;;;4.20;;
4636;SDS011;2331;48.806;9.140;2023-07-08T06:55:53;8.60;;;3.90;;
4636;SDS011;2331;48.806;9.140;2023-07-08T06:58:19;6.80;;;4.27;;
4636;SDS011;2331;48.806;9.140;2023-07-08T07:00:46;10.30;;;4.60;;
4636;SDS011;2331;48.806;9.140;2023-07-08T07:03:13;13.00;;;4.33;;
4636;SDS011;2331;48.806;9.140;2023-07-08T07:05:42;8.20;;;4.23;;
4636;SDS011;2331;48.806;9.140;2023-07-08T07:08:09;7.47;;;4.00;;
4636;SDS011;2331;48.806;9.140;2023-07-08T07:10:36;10.67;;;5.00;;
4636;SDS011;2331;48.806;9.140;2023-07-08T07:13:03;7.57;;;3.97;;
4636;SDS011;2331;48.806;9.140;2023-07-08T07:15:30;7.97;;;4.40;;
4636;SDS011;2331;48.806;9.140;2023-07-08T07:17:57;7.83;;;4.20;;
4636;SDS011;2331;48.806;9.140;2023-07-08T07:20:24;9.53;;;4.63;;
4636;SDS011;2331;48.806;9.140;2023-07-08T07:22:52;6.83;;;4.30;;
4636;SDS011;2331;48.806;9.140;2023-07-08T07:25:19;7.13;;;3.83;;
4636;SDS011;2331;48.806;9.140;2023-07-08T07:27:46;8.07;;;4.17;;
4636;SDS011;2331;48.806;9.140;2023-07-08T07:30:13;10.83;;;4.50;;
4636;SDS011;2331;48.806;9.140;2023-07-08T07:32:40;7.30;;;4.07;;
4636;SDS011;2331;48.806;9.140;2023-07-08T07:35:08;6.70;;;4.03;;
4636;SDS011;2331;48.806;9.140;2023-07-08T07:37:37;9.60;;;4.33;;
4636;SDS011;2331;48.806;9.140;2023-07-08T07:40:08;13.23;;;5.23;;
4636;SDS011;2331;48.806;9.140;2023-07-08T07:42:39;8.63;;;4.50;;
4636;SDS011;2331;48.806;9.140;2023-07-08T07:45:06;7.93;;;4.40;;
4636;SDS011;2331;48.806;9.140;2023-07-08T07:47:34;9.83;;;4.50;;
4636;SDS011;2331;48.806;9.140;2023-07-08T07:50:02;11.30;;;4.97;;
4636;SDS011;2331;48.806;9.140;2023-07-08T07:52:31;8.97;;;4.50;;
4636;SDS011;2331;48.806;9.140;2023-07-08T07:54:58;9.13;;;4.30;;
4636;SDS011;2331;48.806;9.140;2023-07-08T07:57:27;6.43;;;3.47;;
4636;SDS011;2331;48.806;9.140;2023-07-08T07:59:56;10.23;;;4.07;;
4636;SDS011;2331;48.806;9.140;2023-07-08T08:02:23;8.23;;;4.00;;
4636;SDS011;2331;48.806;9.140;2023-07-08T08:04:49;7.10;;;3.90;;
4636;SDS011;2331;48.806;9.140;2023-07-08T08:07:16;7.63;;;4.00;;
4636;SDS011;2331;48.806;9.140;2023-07-08T08:09:43;5.20;;;3.00;;
4636;SDS011;2331;48.806;9.140;2023-07-08T08:12:10;11.37;;;3.60;;
4636;SDS011;2331;48.806;9.140;2023-07-08T08:14:38;7.17;;;3.90;;
4636;SDS011;2331;48.806;9.140;2023-07-08T08:17:05;12.90;;;3.70;;
4636;SDS011;2331;48.806;9.140;2023-07-08T08:19:34;8.00;;;4.50;;
4636;SDS011;2331;48.806;9.140;2023-07-08T08:22:00;5.57;;;3.67;;
4636;SDS011;2331;48.806;9.140;2023-07-08T08:24:27;9.77;;;3.53;;
4636;SDS011;2331;48.806;9.140;2023-07-08T08:26:54;8.87;;;3.90;;
4636;SDS011;2331;48.806;9.140;2023-07-08T08:29:21;9.63;;;3.57;;
4636;SDS011;2331;48.806;9.140;2023-07-08T08:31:50;8.97;;;3.77;;
4636;SDS011;2331;48.806;9.140;2023-07-08T08:34:16;7.70;;;3.90;;
4636;SDS011;2331;48.806;9.140;2023-07-08T08:36:43;5.50;;;2.80;;
4636;SDS011;2331;48.806;9.140;2023-07-08T08:39:11;6.77;;;3.47;;
4636;SDS011;2331;48.806;9.140;2023-07-08T08:41:39;6.23;;;3.17;;
4636;SDS011;2331;48.806;9.140;2023-07-08T08:44:09;5.27;;;3.13;;
4636;SDS011;2331;48.806;9.140;2023-07-08T08:46:41;7.23;;;3.20;;
4636;SDS011;2331;48.806;9.140;2023-07-08T08:49:18;4.73;;;2.33;;
4636;SDS011;2331;48.806;9.140;2023-07-08T08:51:51;4.13;;;2.30;;
4636;SDS011;2331;48.806;9.140;2023-07-08T08:54:18;8.17;;;3.03;;
4636;SDS011;2331;48.806;9.140;2023-07-08T08:56:46;4.80;;;2.23;;
4636;SDS011;2331;48.806;9.140;2023-07-08T08:59:22;5.70;;;2.63;;
4636;SDS011;2331;48.806;9.140;2023-07-08T09:01:59;7.47;;;2.40;;
4636;SDS011;2331;48.806;9.140;2023-07-08T09:04:31;9.00;;;2.70;;
4636;SDS011;2331;48.806;9.140;2023-07-08T09:07:12;8.33;;;2.60;;
4636;SDS011;2331;48.806;9.140;2023-07-08T09:10:02;3.37;;;1.80;;
4636;SDS011;2331;48.806;9.140;2023-07-08T09:12:39;3.63;;;2.03;;
4636;SDS011;2331;48.806;9.140;2023-07-08T09:15:36;4.23;;;2.20;;
4636;SDS011;2331;48.806;9.140;2023-07-08T09:18:28;7.70;;;2.03;;
4636;SDS011;2331;48.806;9.140;2023-07-08T09:21:13;5.70;;;2.27;;
4636;SDS011;2331;48.806;9.140;2023-07-08T09:24:00;6.13;;;2.03;;
4636;SDS011;2331;48.806;9.140;2023-07-08T09:26:42;3.23;;;1.67;;
4636;SDS011;2331;48.806;9.140;2023-07-08T09:29:33;5.50;;;2.23;;
4636;SDS011;2331;48.806;9.140;2023-07-08T09:32:11;4.70;;;1.90;;
4636;SDS011;2331;48.806;9.140;2023-07-08T09:35:01;5.90;;;2.53;;
4636;SDS011;2331;48.806;9.140;2023-07-08T09:37:35;4.43;;;2.10;;
4636;SDS011;2331;48.806;9.140;2023-07-08T09:40:15;4.47;;;1.87;;
4636;SDS011;2331;48.806;9.140;2023-07-08T09:43:00;4.83;;;2.00;;
4636;SDS011;2331;48.806;9.140;2023-07-08T09:45:29;6.23;;;2.40;;
4636;SDS011;2331;48.806;9.140;2023-07-08T09:48:14;5.13;;;2.13;;
4636;SDS011;2331;48.806;9.140;2023-07-08T09:50:47;4.93;;;2.33;;
4636;SDS011;2331;48.806;9.140;2023-07-08T09:53:18;4.90;;;2.40;;
4636;SDS011;2331;48.806;9.140;2023-07-08T09:55:45;4.57;;;2.23;;
4636;SDS011;2331;48.806;9.140;2023-07-08T09:58:13;3.80;;;2.10;;
4636;SDS011;2331;48.806;9.140;2023-07-08T10:00:49;4.73;;;2.43;;
4636;SDS011;2331;48.806;9.140;2023-07-08T10:03:20;5.33;;;1.70;;
4636;SDS011;2331;48.806;9.140;2023-07-08T10:05:49;6.43;;;2.40;;
4636;SDS011;2331;48.806;9.140;2023-07-08T10:08:24;5.30;;;2.53;;
4636;SDS011;2331;48.806;9.140;2023-07-08T10:10:55;5.60;;;2.30;;
4636;SDS011;2331;48.806;9.140;2023-07-08T10:13:28;7.10;;;2.53;;
4636;SDS011;2331;48.806;9.140;2023-07-08T10:16:03;5.20;;;2.50;;
4636;SDS011;2331;48.806;9.140;2023-07-08T10:18:39;6.73;;;2.37;;
4636;SDS011;2331;48.806;9.140;2023-07-08T10:21:08;5.90;;;2.50;;
4636;SDS011;2331;48.806;9.140;2023-07-08T10:23:43;4.73;;;2.47;;
4636;SDS011;2331;48.806;9.140;2023-07-08T10:26:19;6.13;;;2.50;;
4636;SDS011;2331;48.806;9.140;2023-07-08T10:28:53;4.30;;;2.50;;
4636;SDS011;2331;48.806;9.140;2023-07-08T10:31:33;5.83;;;2.80;;
4636;SDS011;2331;48.806;9.140;2023-07-08T10:34:18;5.80;;;3.10;;
4636;SDS011;2331;48.806;9.140;2023-07-08T10:36:58;7.60;;;3.20;;
4636;SDS011;2331;48.806;9.140;2023-07-08T10:42:38;5.80;;;3.00;;
4636;SDS011;2331;48.806;9.140;2023-07-08T10:45:15;15.00;;;3.90;;
4636;SDS011;2331;48.806;9.140;2023-07-08T10:47:55;5.87;;;3.23;;
4636;SDS011;2331;48.806;9.140;2023-07-08T10:50:42;7.67;;;3.93;;
4636;SDS011;2331;48.806;9.140;2023-07-08T10:53:27;7.10;;;3.27;;
4636;SDS011;2331;48.806;9.140;2023-07-08T10:56:05;7.40;;;3.60;;
4636;SDS011;2331;48.806;9.140;2023-07-08T11:01:37;7.23;;;3.53;;
4636;SDS011;2331;48.806;9.140;2023-07-08T11:04:22;5.17;;;3.33;;
4636;SDS011;2331;48.806;9.140;2023-07-08T11:07:00;5.83;;;3.30;;
4636;SDS011;2331;48.806;9.140;2023-07-08T11:09:32;5.50;;;3.50;;
4636;SDS011;2331;48.806;9.140;2023-07-08T11:12:08;6.03;;;3.57;;
4636;SDS011;2331;48.806;9.140;2023-07-08T11:14:45;5.70;;;2.80;;
4636;SDS011;2331;48.806;9.140;2023-07-08T11:17:16;5.50;;;2.90;;
4636;SDS011;2331;48.806;9.140;2023-07-08T11:19:48;6.23;;;3.10;;
4636;SDS011;2331;48.806;9.140;2023-07-08T11:22:21;7.67;;;3.00;;
4636;SDS011;2331;48.806;9.140;2023-07-08T11:24:51;8.70;;;3.27;;
4636;SDS011;2331;48.806;9.140;2023-07-08T11:27:23;8.70;;;3.17;;
4636;SDS011;2331;48.806;9.140;2023-07-08T11:29:53;5.70;;;3.23;;
4636;SDS011;2331;48.806;9.140;2023-07-08T11:32:23;10.30;;;2.83;;
4636;SDS011;2331;48.806;9.140;2023-07-08T11:34:53;6.30;;;2.80;;
4636;SDS011;2331;48.806;9.140;2023-07-08T11:37:22;8.03;;;2.80;;
4636;SDS011;2331;48.806;9.140;2023-07-08T11:39:53;5.57;;;3.03;;
4636;SDS011;2331;48.806;9.140;2023-07-08T11:42:32;9.63;;;3.37;;
4636;SDS011;2331;48.806;9.140;2023-07-08T11:45:02;5.67;;;2.80;;
4636;SDS011;2331;48.806;9.140;2023-07-08T11:47:35;7.93;;;3.20;;
4636;SDS011;2331;48.806;9.140;2023-07-08T11:50:06;6.20;;;3.30;;
4636;SDS011;2331;48.806;9.140;2023-07-08T11:52:49;6.27;;;3.40;;
4636;SDS011;2331;48.806;9.140;2023-07-08T11:55:20;8.03;;;3.00;;
4636;SDS011;2331;48.806;9.140;2023-07-08T11:57:54;4.93;;;2.87;;
4636;SDS011;2331;48.806;9.140;2023-07-08T12:00:23;7.00;;;3.00;;
4636;SDS011;2331;48.806;9.140;2023-07-08T12:02:53;4.30;;;2.40;;
4636;SDS011;2331;48.806;9.140;2023-07-08T12:05:31;5.90;;;2.73;;
4636;SDS011;2331;48.806;9.140;2023-07-08T12:07:59;5.53;;;2.83;;
4636;SDS011;2331;48.806;9.140;2023-07-08T12:10:30;5.97;;;2.80;;
4636;SDS011;2331;48.806;9.140;2023-07-08T12:13:03;6.60;;;3.80;;
4636;SDS011;2331;48.806;9.140;2023-07-08T12:15:35;5.80;;;3.10;;
4636;SDS011;2331;48.806;9.140;2023-07-08T12:18:05;6.27;;;3.07;;
4636;SDS011;2331;48.806;9.140;2023-07-08T12:20:38;6.93;;;3.00;;
4636;SDS011;2331;48.806;9.140;2023-07-08T12:23:09;9.93;;;4.27;;
4636;SDS011;2331;48.806;9.140;2023-07-08T12:25:38;7.57;;;3.20;;
4636;SDS011;2331;48.806;9.140;2023-07-08T12:28:06;4.90;;;2.83;;
4636;SDS011;2331;48.806;9.140;2023-07-08T12:30:33;7.47;;;3.30;;
4636;SDS011;2331;48.806;9.140;2023-07-08T12:33:00;6.23;;;2.80;;
4636;SDS011;2331;48.806;9.140;2023-07-08T12:35:29;6.50;;;2.90;;
4636;SDS011;2331;48.806;9.140;2023-07-08T12:37:58;6.57;;;2.63;;
4636;SDS011;2331;48.806;9.140;2023-07-08T12:40:29;5.10;;;3.17;;
4636;SDS011;2331;48.806;9.140;2023-07-08T12:42:56;4.50;;;2.53;;
4636;SDS011;2331;48.806;9.140;2023-07-08T12:45:27;5.53;;;2.50;;
4636;SDS011;2331;48.806;9.140;2023-07-08T12:47:56;5.50;;;2.60;;
4636;SDS011;2331;48.806;9.140;2023-07-08T12:50:23;5.50;;;2.63;;
4636;SDS011;2331;48.806;9.140;2023-07-08T12:52:50;5.20;;;2.37;;
4636;SDS011;2331;48.806;9.140;2023-07-08T12:55:17;6.73;;;2.60;;
4636;SDS011;2331;48.806;9.140;2023-07-08T12:57:45;7.40;;;2.90;;
4636;SDS011;2331;48.806;9.140;2023-07-08T13:00:15;6.70;;;2.60;;
4636;SDS011;2331;48.806;9.140;2023-07-08T13:02:48;6.10;;;2.40;;
4636;SDS011;2331;48.806;9.140;2023-07-08T13:05:22;5.13;;;2.43;;
4636;SDS011;2331;48.806;9.140;2023-07-08T13:07:48;6.77;;;3.10;;
4636;SDS011;2331;48.806;9.140;2023-07-08T13:10:17;7.43;;;3.47;;
4636;SDS011;2331;48.806;9.140;2023-07-08T13:12:46;7.13;;;2.80;;
4636;SDS011;2331;48.806;9.140;2023-07-08T13:15:19;4.07;;;2.50;;
4636;SDS011;2331;48.806;9.140;2023-07-08T13:17:50;7.67;;;3.00;;
4636;SDS011;2331;48.806;9.140;2023-07-08T13:20:17;5.93;;;2.73;;
4636;SDS011;2331;48.806;9.140;2023-07-08T13:22:47;5.33;;;2.30;;
4636;SDS011;2331;48.806;9.140;2023-07-08T13:25:18;8.50;;;2.57;;
4636;SDS011;2331;48.806;9.140;2023-07-08T13:27:54;5.50;;;2.40;;
4636;SDS011;2331;48.806;9.140;2023-07-08T13:30:24;5.40;;;2.27;;
4636;SDS011;2331;48.806;9.140;2023-07-08T13:32:54;7.90;;;2.77;;
4636;SDS011;2331;48.806;9.140;2023-07-08T13:35:23;6.23;;;2.50;;
4636;SDS011;2331;48.806;9.140;2023-07-08T13:37:51;5.10;;;2.70;;
4636;SDS011;2331;48.806;9.140;2023-07-08T13:40:18;3.80;;;2.13;;
4636;SDS011;2331;48.806;9.140;2023-07-08T13:42:49;6.40;;;3.00;;
4636;SDS011;2331;48.806;9.140;2023-07-08T13:45:21;5.70;;;2.30;;
4636;SDS011;2331;48.806;9.140;2023-07-08T13:48:08;4.60;;;2.50;;
4636;SDS011;2331;48.806;9.140;2023-07-08T13:50:41;4.80;;;2.30;;
4636;SDS011;2331;48.806;9.140;2023-07-08T13:53:16;8.63;;;2.23;;
4636;SDS011;2331;48.806;9.140;2023-07-08T13:55:45;4.20;;;2.10;;
4636;SDS011;2331;48.806;9.140;2023-07-08T13:58:16;6.57;;;2.57;;
4636;SDS011;2331;48.806;9.140;2023-07-08T14:00:43;5.47;;;2.00;;
4636;SDS011;2331;48.806;9.140;2023-07-08T14:03:11;5.03;;;2.43;;
4636;SDS011;2331;48.806;9.140;2023-07-08T14:05:43;4.50;;;2.27;;
4636;SDS011;2331;48.806;9.140;2023-07-08T14:08:12;8.73;;;2.40;;
4636;SDS011;2331;48.806;9.140;2023-07-08T14:10:40;5.33;;;2.67;;
4636;SDS011;2331;48.806;9.140;2023-07-08T14:13:07;5.10;;;2.40;;
4636;SDS011;2331;48.806;9.140;2023-07-08T14:15:35;5.13;;;2.30;;
4636;SDS011;2331;48.806;9.140;2023-07-08T14:18:03;6.80;;;2.27;;
4636;SDS011;2331;48.806;9.140;2023-07-08T14:20:32;8.57;;;2.10;;
4636;SDS011;2331;48.806;9.140;2023-07-08T14:22:58;5.00;;;2.23;;
4636;SDS011;2331;48.806;9.140;2023-07-08T14:25:25;4.73;;;1.97;;
4636;SDS011;2331;48.806;9.140;2023-07-08T14:27:52;3.67;;;1.70;;
4636;SDS011;2331;48.806;9.140;2023-07-08T14:30:18;6.13;;;2.40;;
4636;SDS011;2331;48.806;9.140;2023-07-08T14:32:47;3.93;;;2.20;;
4636;SDS011;2331;48.806;9.140;2023-07-08T14:35:15;4.97;;;2.53;;
4636;SDS011;2331;48.806;9.140;2023-07-08T14:37:45;6.17;;;2.13;;
4636;SDS011;2331;48.806;9.140;2023-07-08T14:40:17;6.60;;;2.00;;
4636;SDS011;2331;48.806;9.140;2023-07-08T14:42:46;4.20;;;2.30;;
4636;SDS011;2331;48.806;9.140;2023-07-08T14:45:13;5.93;;;2.73;;
4636;SDS011;2331;48.806;9.140;2023-07-08T14:47:40;4.43;;;2.13;;
4636;SDS011;2331;48.806;9.140;2023-07-08T14:50:11;5.23;;;2.67;;
4636;SDS011;2331;48.806;9.140;2023-07-08T14:52:39;5.20;;;2.10;;
4636;SDS011;2331;48.806;9.140;2023-07-08T14:55:08;4.13;;;2.00;;
4636;SDS011;2331;48.806;9.140;2023-07-08T14:57:39;6.50;;;2.47;;
4636;SDS011;2331;48.806;9.140;2023-07-08T15:00:10;4.43;;;2.00;;
4636;SDS011;2331;48.806;9.140;2023-07-08T15:02:39;4.33;;;2.50;;
4636;SDS011;2331;48.806;9.140;2023-07-08T15:05:12;7.37;;;2.90;;
4636;SDS011;2331;48.806;9.140;2023-07-08T15:07:41;7.53;;;2.77;;
4636;SDS011;2331;48.806;9.140;2023-07-08T15:10:09;6.07;;;2.70;;
4636;SDS011;2331;48.806;9.140;2023-07-08T15:12:36;5.07;;;2.20;;
4636;SDS011;2331;48.806;9.140;2023-07-08T15:15:04;7.67;;;2.10;;
4636;SDS011;2331;48.806;9.140;2023-07-08T15:17:39;3.97;;;2.20;;
4636;SDS011;2331;48.806;9.140;2023-07-08T15:20:09;4.57;;;2.07;;
4636;SDS011;2331;48.806;9.140;2023-07-08T15:22:39;3.33;;;1.90;;
4636;SDS011;2331;48.806;9.140;2023-07-08T15:25:13;5.10;;;2.77;;
4636;SDS011;2331;48.806;9.140;2023-07-08T15:27:41;4.70;;;2.67;;
4636;SDS011;2331;48.806;9.140;2023-07-08T15:30:14;6.10;;;2.60;;
4636;SDS011;2331;48.806;9.140;2023-07-08T15:32:46;5.40;;;2.60;;
4636;SDS011;2331;48.806;9.140;2023-07-08T15:35:14;4.90;;;2.40;;
4636;SDS011;2331;48.806;9.140;2023-07-08T15:37:43;4.90;;;2.60;;
4636;SDS011;2331;48.806;9.140;2023-07-08T15:40:13;6.20;;;2.73;;